createdAt,value
2022-08-12T00:00:57.423Z,99.90
2022-08-12T00:04:01.848Z,99.90
2022-08-12T00:07:06.845Z,99.90
2022-08-12T00:10:11.912Z,99.90
2022-08-12T00:13:17.110Z,99.90
2022-08-12T00:16:22.564Z,99.90
2022-08-12T00:19:26.993Z,99.90
2022-08-12T00:22:32.780Z,99.90
2022-08-12T00:26:01.415Z,99.90
2022-08-12T00:29:02.024Z,99.90
2022-08-12T00:32:06.566Z,99.90
2022-08-12T00:35:17.171Z,99.90
2022-08-12T00:38:23.093Z,99.90
2022-08-12T00:41:30.719Z,99.90
2022-08-12T00:44:19.239Z,99.90
2022-08-12T00:47:24.529Z,99.90
2022-08-12T00:50:18.677Z,99.90
2022-08-12T00:53:07.103Z,99.90
2022-08-12T00:55:58.285Z,99.90
2022-08-12T00:58:48.402Z,99.90
2022-08-12T01:02:10.459Z,99.90
2022-08-12T01:05:06.480Z,99.90
2022-08-12T01:08:12.140Z,99.90
2022-08-12T01:11:17.379Z,99.90
2022-08-12T01:14:04.333Z,99.90
2022-08-12T01:16:52.765Z,99.90
2022-08-12T01:19:40.338Z,99.90
2022-08-12T01:22:54.256Z,99.90
2022-08-12T01:25:56.027Z,99.90
2022-08-12T01:28:44.772Z,99.90
2022-08-12T01:31:31.288Z,99.90
2022-08-12T01:34:35.692Z,99.90
2022-08-12T01:37:25.734Z,99.90
2022-08-12T01:40:36.829Z,99.90
2022-08-12T01:43:22.160Z,99.90
2022-08-12T01:46:31.007Z,99.90
2022-08-12T01:49:21.785Z,99.90
2022-08-12T01:52:22.123Z,99.90
2022-08-12T01:55:11.312Z,99.90
2022-08-12T01:58:11.599Z,99.90
2022-08-12T02:01:06.623Z,99.90
2022-08-12T02:04:34.519Z,99.90
2022-08-12T02:07:48.367Z,99.90
2022-08-12T02:11:18.809Z,99.90
2022-08-12T02:14:42.008Z,99.90
2022-08-12T02:17:57.126Z,99.90
2022-08-12T02:21:00.213Z,99.90
2022-08-12T02:23:47.516Z,99.90
2022-08-12T02:26:39.529Z,99.90
2022-08-12T02:29:26.656Z,99.90
2022-08-12T02:32:14.454Z,99.90
2022-08-12T02:35:01.772Z,99.90
2022-08-12T02:37:52.375Z,99.90
2022-08-12T02:40:43.196Z,99.90
2022-08-12T02:43:51.218Z,99.90
2022-08-12T02:46:39.147Z,99.90
2022-08-12T02:49:40.746Z,99.90
2022-08-12T02:52:27.401Z,99.90
2022-08-12T02:55:28.575Z,99.90
2022-08-12T02:58:21.301Z,99.90
2022-08-12T03:01:25.002Z,99.90
2022-08-12T03:04:20.869Z,99.90
2022-08-12T03:07:20.115Z,99.90
2022-08-12T03:10:11.358Z,99.90
2022-08-12T03:13:04.253Z,99.90
2022-08-12T03:15:50.549Z,99.90
2022-08-12T03:18:37.671Z,99.90
2022-08-12T03:21:53.063Z,99.90
2022-08-12T03:24:34.800Z,99.90
2022-08-12T03:27:22.857Z,99.90
2022-08-12T03:30:09.268Z,99.90
2022-08-12T03:33:00.220Z,99.90
2022-08-12T03:35:47.252Z,99.90
2022-08-12T03:38:43.086Z,99.90
2022-08-12T03:41:35.349Z,99.90
2022-08-12T03:45:05.776Z,99.90
2022-08-12T03:48:36.863Z,99.90
2022-08-12T03:51:41.656Z,99.90
2022-08-12T03:54:46.548Z,99.90
2022-08-12T03:57:51.301Z,99.90
2022-08-12T04:00:37.775Z,99.90
2022-08-12T04:03:43.450Z,99.90
2022-08-12T04:06:34.906Z,99.90
2022-08-12T04:09:22.723Z,99.90
2022-08-12T04:12:35.703Z,99.90
2022-08-12T04:15:25.939Z,99.90
2022-08-12T04:18:13.306Z,99.90
2022-08-12T04:21:01.571Z,99.90
2022-08-12T04:23:48.961Z,99.90
2022-08-12T04:26:39.950Z,99.90
2022-08-12T04:30:31.969Z,99.90
2022-08-12T04:32:37.679Z,99.90
2022-08-12T04:35:28.196Z,99.90
2022-08-12T04:38:14.508Z,99.90
2022-08-12T04:41:01.470Z,99.90
2022-08-12T04:43:59.886Z,99.90
2022-08-12T04:46:48.563Z,99.90
2022-08-12T04:49:35.691Z,99.90
2022-08-12T04:52:22.139Z,99.90
2022-08-12T04:55:12.959Z,99.90
2022-08-12T04:57:59.116Z,99.90
2022-08-12T05:00:47.675Z,99.90
2022-08-12T05:03:46.088Z,99.90
2022-08-12T05:06:33.003Z,99.90
2022-08-12T05:09:19.641Z,99.90
2022-08-12T05:12:08.816Z,99.90
2022-08-12T05:14:55.914Z,99.90
2022-08-12T05:17:43.585Z,99.90
2022-08-12T05:20:30.805Z,99.90
2022-08-12T05:23:21.474Z,99.90
2022-08-12T05:26:07.607Z,99.90
2022-08-12T05:28:54.285Z,99.90
2022-08-12T05:31:48.127Z,99.90
2022-08-12T05:34:34.813Z,99.90
2022-08-12T05:37:23.671Z,99.90
2022-08-12T05:40:11.422Z,99.90
2022-08-12T05:42:58.027Z,99.90
2022-08-12T05:45:45.489Z,99.90
2022-08-12T05:48:32.459Z,99.90
2022-08-12T05:51:18.895Z,99.90
2022-08-12T05:54:05.901Z,99.90
2022-08-12T05:56:52.139Z,99.90
2022-08-12T05:59:43.793Z,99.90
2022-08-12T06:02:30.163Z,99.90
2022-08-12T06:05:16.364Z,99.90
2022-08-12T06:08:07.576Z,99.90
2022-08-12T06:10:53.749Z,99.90
2022-08-12T06:13:54.188Z,99.90
2022-08-12T06:16:40.481Z,99.90
2022-08-12T06:20:28.466Z,99.90
2022-08-12T06:22:38.704Z,99.90
2022-08-12T06:25:27.777Z,99.90
2022-08-12T06:28:17.320Z,99.90
2022-08-12T06:35:26.330Z,99.90
2022-08-12T06:37:18.904Z,99.90
2022-08-12T06:40:06.721Z,99.90
2022-08-12T06:42:52.932Z,99.90
2022-08-12T06:45:46.801Z,99.90
2022-08-12T06:48:33.214Z,99.90
2022-08-12T06:51:20.792Z,99.90
2022-08-12T06:54:07.441Z,99.90
2022-08-12T06:57:04.780Z,99.90
2022-08-12T07:00:01.512Z,99.90
2022-08-12T07:02:47.824Z,99.90
2022-08-12T07:05:36.718Z,99.90
2022-08-12T07:08:23.684Z,99.90
2022-08-12T07:11:13.261Z,99.90
2022-08-12T07:14:12.651Z,99.90
2022-08-12T07:17:02.335Z,99.90
2022-08-12T07:19:54.173Z,99.90
2022-08-12T07:22:41.739Z,99.90
2022-08-12T07:25:40.482Z,99.90
2022-08-12T07:28:35.755Z,99.90
2022-08-12T07:31:21.523Z,99.90
2022-08-12T07:34:07.763Z,99.90
2022-08-12T07:36:53.980Z,99.90
2022-08-12T07:39:58.709Z,99.90
2022-08-12T07:42:46.545Z,99.90
2022-08-12T07:45:32.533Z,99.90
2022-08-12T07:48:18.480Z,99.90
2022-08-12T07:51:05.088Z,99.90
2022-08-12T07:54:00.454Z,99.90
2022-08-12T07:56:50.033Z,99.90
2022-08-12T07:59:36.108Z,99.90
2022-08-12T08:02:22.330Z,99.90
2022-08-12T08:05:13.267Z,99.90
2022-08-12T08:08:02.474Z,99.90
2022-08-12T08:10:50.172Z,99.90
2022-08-12T08:13:38.924Z,99.90
2022-08-12T08:16:25.382Z,99.90
2022-08-12T08:19:24.054Z,99.90
2022-08-12T08:22:10.594Z,99.90
2022-08-12T08:24:58.522Z,99.90
2022-08-12T08:27:47.025Z,99.90
2022-08-12T08:30:34.640Z,99.90
2022-08-12T08:33:23.641Z,99.90
2022-08-12T08:36:27.425Z,99.90
2022-08-12T08:39:17.095Z,99.90
2022-08-12T08:42:21.556Z,99.90
2022-08-12T08:45:13.000Z,99.90
2022-08-12T08:48:00.578Z,99.90
2022-08-12T08:50:46.574Z,99.90
2022-08-12T08:53:52.804Z,99.90
2022-08-12T08:56:50.126Z,99.90
2022-08-12T08:59:36.611Z,99.90
2022-08-12T09:02:22.633Z,99.90
2022-08-12T09:05:16.292Z,99.90
2022-08-12T09:08:14.506Z,99.90
2022-08-12T09:14:30.229Z,99.90
2022-08-12T09:17:21.330Z,99.90
2022-08-12T09:20:09.483Z,99.90
2022-08-12T09:22:57.575Z,99.90
2022-08-12T09:25:48.794Z,99.90
2022-08-12T09:28:37.158Z,99.70
2022-08-12T09:32:08.006Z,99.30
2022-08-12T09:34:33.942Z,99.10
2022-08-12T09:37:28.347Z,98.90
2022-08-12T09:41:02.518Z,98.60
2022-08-12T09:44:05.637Z,98.30
2022-08-12T09:46:52.420Z,98.00
2022-08-12T09:49:42.614Z,97.80
2022-08-12T09:52:32.024Z,97.50
2022-08-12T09:56:05.523Z,97.30
2022-08-12T09:58:56.855Z,97.20
2022-08-12T10:02:45.018Z,96.90
2022-08-12T10:04:51.698Z,96.50
2022-08-12T10:07:40.685Z,96.10
2022-08-12T10:10:30.716Z,95.60
2022-08-12T10:13:41.758Z,95.30
2022-08-12T10:16:38.750Z,94.90
2022-08-12T10:19:36.181Z,94.70
2022-08-12T10:22:39.475Z,94.50
2022-08-12T10:26:33.710Z,94.50
2022-08-12T10:30:01.112Z,94.20
2022-08-12T10:32:45.540Z,94.00
2022-08-12T10:35:37.700Z,93.70
2022-08-12T10:38:37.926Z,93.30
2022-08-12T10:41:57.730Z,93.10
2022-08-12T10:44:46.870Z,93.00
2022-08-12T10:48:07.625Z,92.80
2022-08-12T10:51:01.778Z,92.20
2022-08-12T10:53:48.194Z,91.90
2022-08-12T10:56:40.550Z,91.60
2022-08-12T11:00:31.449Z,91.30
2022-08-12T11:04:27.373Z,90.50
2022-08-12T11:07:07.347Z,90.40
2022-08-12T11:08:48.318Z,90.40
2022-08-12T11:12:34.713Z,89.40
2022-08-12T11:14:49.357Z,88.90
2022-08-12T11:17:52.094Z,87.90
2022-08-12T11:20:39.593Z,87.20
2022-08-12T11:23:36.893Z,87.00
2022-08-12T11:26:24.036Z,86.50
2022-08-12T11:29:22.090Z,85.60
2022-08-12T11:32:08.818Z,84.30
2022-08-12T11:34:55.472Z,82.70
2022-08-12T11:37:57.758Z,81.80
2022-08-12T11:40:45.122Z,80.70
2022-08-12T11:43:32.483Z,80.30
2022-08-12T11:46:38.213Z,79.40
2022-08-12T11:49:31.345Z,78.70
2022-08-12T11:52:55.552Z,77.90
2022-08-12T11:55:27.472Z,77.10
2022-08-12T11:59:08.438Z,76.30
2022-08-12T12:02:03.412Z,75.30
2022-08-12T12:04:29.453Z,74.80
2022-08-12T12:07:15.986Z,73.80
2022-08-12T12:10:02.123Z,73.30
2022-08-12T12:12:49.927Z,72.60
2022-08-12T12:15:40.987Z,71.80
2022-08-12T12:18:30.768Z,71.60
2022-08-12T12:21:17.373Z,70.70
2022-08-12T12:24:03.564Z,70.20
2022-08-12T12:27:00.133Z,70.20
2022-08-12T12:30:19.850Z,69.90
2022-08-12T12:32:54.038Z,69.40
2022-08-12T12:36:18.135Z,69.50
2022-08-12T12:38:46.764Z,69.30
2022-08-12T12:42:42.022Z,69.50
2022-08-12T12:44:42.105Z,68.70
2022-08-12T12:47:37.315Z,68.70
2022-08-12T12:50:35.446Z,68.30
2022-08-12T12:54:06.812Z,67.80
2022-08-12T12:56:34.103Z,67.30
2022-08-12T12:59:56.512Z,66.50
2022-08-12T13:02:31.760Z,66.30
2022-08-12T13:05:42.750Z,66.10
2022-08-12T13:08:35.756Z,66.00
2022-08-12T13:11:22.922Z,65.80
2022-08-12T13:14:28.108Z,65.30
2022-08-12T13:17:17.497Z,65.20
2022-08-12T13:20:06.745Z,64.80
2022-08-12T13:22:54.042Z,65.00
2022-08-12T13:25:43.210Z,64.40
2022-08-12T13:28:31.167Z,63.60
2022-08-12T13:31:17.410Z,63.00
2022-08-12T13:34:33.905Z,62.40
2022-08-12T13:37:11.754Z,62.10
2022-08-12T13:39:58.061Z,61.70
2022-08-12T13:42:48.745Z,61.50
2022-08-12T13:45:37.394Z,61.20
2022-08-12T13:48:23.710Z,60.60
2022-08-12T13:51:24.179Z,60.80
2022-08-12T13:54:11.767Z,60.60
2022-08-12T13:57:00.177Z,60.40
2022-08-12T13:59:55.039Z,59.70
2022-08-12T14:02:42.503Z,59.40
2022-08-12T14:05:38.405Z,58.90
2022-08-12T14:08:25.469Z,58.70
2022-08-12T14:11:13.143Z,58.50
2022-08-12T14:14:04.682Z,58.20
2022-08-12T14:16:52.423Z,57.90
2022-08-12T14:20:00.657Z,58.30
2022-08-12T14:22:51.527Z,57.90
2022-08-12T14:25:42.351Z,58.00
2022-08-12T14:28:34.922Z,57.80
2022-08-12T14:31:25.661Z,57.40
2022-08-12T14:34:15.632Z,57.00
2022-08-12T14:37:02.400Z,56.80
2022-08-12T14:39:53.594Z,56.50
2022-08-12T14:42:40.225Z,56.40
2022-08-12T14:45:45.373Z,55.80
2022-08-12T14:48:33.573Z,55.20
2022-08-12T14:52:54.615Z,55.10
2022-08-12T14:57:57.001Z,54.90
2022-08-12T15:01:03.237Z,54.50
2022-08-12T15:03:58.202Z,54.80
2022-08-12T15:06:52.645Z,55.00
2022-08-12T15:09:38.994Z,54.10
2022-08-12T15:12:24.964Z,53.80
2022-08-12T15:15:11.417Z,53.90
2022-08-12T15:18:02.122Z,53.60
2022-08-12T15:20:49.510Z,53.30
2022-08-12T15:23:45.775Z,53.30
2022-08-12T15:26:42.714Z,52.90
2022-08-12T15:29:30.059Z,52.90
2022-08-12T15:32:17.975Z,52.00
2022-08-12T15:35:19.420Z,51.20
2022-08-12T15:38:09.574Z,50.30
2022-08-12T15:41:00.814Z,49.80
2022-08-12T15:44:15.955Z,49.40
2022-08-12T15:46:54.979Z,49.30
2022-08-12T15:49:54.130Z,48.70
2022-08-12T15:52:46.561Z,48.10
2022-08-12T15:55:36.116Z,47.80
2022-08-12T15:58:33.834Z,47.00
2022-08-12T16:01:20.973Z,46.40
2022-08-12T16:04:06.846Z,46.10
2022-08-12T16:07:05.568Z,45.70
2022-08-12T16:10:05.930Z,45.50
2022-08-12T16:12:57.987Z,45.40
2022-08-12T16:15:51.121Z,44.80
2022-08-12T16:18:49.835Z,44.30
2022-08-12T16:21:51.818Z,44.20
2022-08-12T16:24:45.948Z,44.30
2022-08-12T16:27:38.658Z,44.40
2022-08-12T16:30:32.740Z,44.40
2022-08-12T16:33:19.765Z,44.00
2022-08-12T16:36:11.393Z,43.30
2022-08-12T16:39:01.363Z,43.00
2022-08-12T16:41:48.303Z,43.00
2022-08-12T16:44:35.677Z,43.00
2022-08-12T16:47:23.289Z,43.00
2022-08-12T16:50:14.473Z,43.00
2022-08-12T16:53:02.358Z,43.00
2022-08-12T16:55:52.039Z,42.90
2022-08-12T16:58:39.427Z,42.60
2022-08-12T17:01:27.468Z,42.40
2022-08-12T17:04:15.485Z,42.00
2022-08-12T17:07:02.973Z,42.00
2022-08-12T17:09:52.222Z,42.10
2022-08-12T17:12:40.052Z,42.10
2022-08-12T17:15:51.320Z,41.90
2022-08-12T17:18:44.008Z,41.80
2022-08-12T17:22:01.122Z,41.70
2022-08-12T17:24:50.610Z,41.60
2022-08-12T17:27:56.959Z,41.60
2022-08-12T17:30:57.220Z,41.40
2022-08-12T17:33:50.469Z,41.40
2022-08-12T17:36:43.249Z,41.40
2022-08-12T17:40:13.766Z,41.60
2022-08-12T17:42:37.928Z,42.30
2022-08-12T17:45:27.314Z,41.80
2022-08-12T17:48:17.574Z,41.80
2022-08-12T17:51:16.035Z,42.00
2022-08-12T17:54:10.543Z,42.10
2022-08-12T17:57:00.197Z,42.20
2022-08-12T17:59:51.149Z,42.70
2022-08-12T18:02:39.181Z,43.40
2022-08-12T18:05:43.464Z,44.00
2022-08-12T18:08:35.986Z,45.00
2022-08-12T18:12:04.341Z,46.10
2022-08-12T18:14:53.798Z,47.10
2022-08-12T18:17:46.917Z,48.20
2022-08-12T18:20:36.634Z,49.10
2022-08-12T18:23:26.413Z,50.10
2022-08-12T18:26:26.876Z,50.80
2022-08-12T18:29:17.146Z,51.50
2022-08-12T18:32:34.784Z,52.30
2022-08-12T18:35:11.288Z,52.70
2022-08-12T18:38:02.709Z,53.40
2022-08-12T18:41:10.046Z,54.10
2022-08-12T18:44:10.436Z,54.80
2022-08-12T18:47:01.460Z,55.90
2022-08-12T18:49:49.752Z,56.30
2022-08-12T18:52:40.414Z,56.90
2022-08-12T18:55:37.703Z,57.50
2022-08-12T18:58:30.325Z,58.30
2022-08-12T19:02:19.586Z,58.90
2022-08-12T19:04:26.399Z,59.30
2022-08-12T19:07:23.752Z,60.00
2022-08-12T19:10:11.494Z,61.00
2022-08-12T19:13:23.143Z,61.30
2022-08-12T19:16:12.339Z,61.80
2022-08-12T19:18:58.885Z,62.30
2022-08-12T19:21:53.462Z,62.80
2022-08-12T19:25:01.530Z,63.40
2022-08-12T19:27:50.626Z,63.90
2022-08-12T19:30:55.907Z,64.50
2022-08-12T19:34:06.332Z,65.10
2022-08-12T19:36:50.932Z,65.70
2022-08-12T19:40:09.950Z,66.20
2022-08-12T19:43:00.759Z,66.80
2022-08-12T19:45:56.597Z,67.30
2022-08-12T19:48:44.859Z,68.10
2022-08-12T19:51:49.465Z,68.60
2022-08-12T19:54:36.033Z,69.30
2022-08-12T19:57:22.517Z,69.80
2022-08-12T20:00:17.355Z,70.40
2022-08-12T20:03:08.329Z,71.00
2022-08-12T20:06:21.738Z,71.60
2022-08-12T20:09:11.758Z,72.10
2022-08-12T20:12:14.315Z,72.80
2022-08-12T20:15:09.467Z,73.30
2022-08-12T20:17:57.303Z,74.00
2022-08-12T20:20:47.683Z,74.20
2022-08-12T20:23:59.780Z,74.80
2022-08-12T20:26:44.570Z,75.40
2022-08-12T20:29:36.550Z,76.20
2022-08-12T20:32:29.498Z,76.90
2022-08-12T20:35:38.942Z,77.60
2022-08-12T20:38:34.188Z,78.20
2022-08-12T20:41:22.183Z,79.30
2022-08-12T20:44:16.841Z,79.30
2022-08-12T20:47:17.931Z,79.70
2022-08-12T20:50:09.213Z,80.30
2022-08-12T20:52:55.585Z,80.80
2022-08-12T20:55:47.054Z,81.40
2022-08-12T20:58:44.229Z,81.90
2022-08-12T21:01:46.198Z,82.50
2022-08-12T21:04:51.515Z,83.00
2022-08-12T21:07:40.876Z,83.60
2022-08-12T21:10:38.614Z,84.10
2022-08-12T21:13:26.617Z,84.90
2022-08-12T21:16:13.877Z,85.50
2022-08-12T21:19:00.827Z,86.20
2022-08-12T21:21:49.929Z,86.70
2022-08-12T21:24:36.655Z,87.20
2022-08-12T21:27:58.600Z,87.80
2022-08-12T21:31:11.526Z,88.50
2022-08-12T21:34:08.690Z,89.10
2022-08-12T21:36:56.681Z,89.80
2022-08-12T21:39:50.658Z,90.20
2022-08-12T21:42:40.053Z,90.50
2022-08-12T21:45:45.410Z,90.80
2022-08-12T21:48:34.163Z,91.10
2022-08-12T21:51:23.496Z,91.50
2022-08-12T21:54:12.143Z,91.80
2022-08-12T21:57:08.984Z,92.10
2022-08-12T21:59:55.373Z,92.50
2022-08-12T22:02:59.607Z,92.80
2022-08-12T22:06:03.965Z,93.10
2022-08-12T22:08:57.724Z,93.50
2022-08-12T22:11:49.110Z,93.90
2022-08-12T22:14:43.125Z,94.20
2022-08-12T22:17:50.081Z,94.50
2022-08-12T22:20:37.111Z,94.90
2022-08-12T22:23:28.370Z,95.20
2022-08-12T22:26:37.561Z,95.60
2022-08-12T22:29:42.582Z,96.00
2022-08-12T22:32:30.079Z,96.40
2022-08-12T22:35:55.438Z,96.70
2022-08-12T22:38:40.716Z,97.10
2022-08-12T22:41:46.204Z,97.30
2022-08-12T22:44:54.885Z,97.70
2022-08-12T22:47:54.719Z,98.10
2022-08-12T22:50:42.185Z,98.40
2022-08-12T22:53:35.822Z,98.70
2022-08-12T22:56:30.832Z,99.00
2022-08-12T22:59:17.447Z,99.40
2022-08-12T23:02:08.428Z,99.50
2022-08-12T23:04:58.526Z,99.80
2022-08-12T23:07:58.657Z,99.90
2022-08-12T23:10:46.383Z,99.90
2022-08-12T23:13:55.463Z,99.90
2022-08-12T23:16:42.582Z,99.90
2022-08-12T23:19:38.054Z,99.90
2022-08-12T23:22:36.870Z,99.90
2022-08-12T23:25:32.663Z,99.90
2022-08-12T23:28:54.944Z,99.90
2022-08-12T23:32:03.416Z,99.90
2022-08-12T23:34:50.563Z,99.90
2022-08-12T23:37:47.783Z,99.90
2022-08-12T23:40:40.307Z,99.90
2022-08-12T23:43:26.780Z,99.90
2022-08-12T23:46:27.217Z,99.90
2022-08-12T23:49:27.158Z,99.90
2022-08-12T23:52:19.541Z,99.90
2022-08-12T23:55:23.732Z,99.90
2022-08-12T23:58:21.311Z,99.90
